메인 페이지
METAR-TAF:

METAR-TAF

공항 :

우아리 부메디엔 공항

알제, 알제리

위도: 36-43N, 경도: 003-15E, 고도: 25m

현재 날씨관측

예보는 36분 전, 00:30시(UTC)에 발표되었습니다.
여러 방향의 바람 2kt
온도 23°C
습도 83%
기압 1016 hPa
시정 10km 이상
고도 2000ft 상공 구름 조금

METAR: DAAG 150030Z VRB02KT 9999 FEW020 23/20 Q1016

시각: 02:06 (01:06 UTC)

예보

예보는 2 시간 6분 전, 23:00시(UTC)에 발표되었습니다.
예보 대상 시간: 15일 00시부터 15일 24시까지 (UTC)
여러 방향의 바람 2kt
시정 10km 이상
고도 2000ft 상공 구름 조금
확률 30% :
일시적
15일 00시부터 15일 06시까지 (UTC)
시정: 5000m
박무
전환 중
15일 09시부터 15일 12시까지 (UTC)
북동12kt
전환 중
14일 20시부터 14일 24시까지 (UTC)
여러 방향의 바람 2kt

TAF: DAAG 142300Z 1500/1524 VRB02KT 9999 FEW020 PROB30 TEMPO 1500/1506 5000 BR BECMG 1509/1512 04012KT BECMG 1420/1424 VRB02KT

4,000개 이상의 공항 관측 자료 및 예보 (METAR 및 TAF 보고).

지도상에서 검색 가능한 기상관측소가 노란 점과 빨간 점으로 표시되어 있습니다.

기상관측소 명을 보려면 표시 위로 마우스를 이동하세요.

날씨 관측과 예보를 보려면 클릭하세요.

지도 변경 : 확대하려면 엑스 표시가 있는 녹색 버튼, 축소하려면 빼기 표시가 있는 녹색 버튼, 다음 페이지의 지도를 보려면 녹색 화살표를 클릭하세요.


METAR-TAF: